New Haven, Missouri
Current Conditions -  °F | °C
As of 11:15 AM on Saturday 20 Dec 2014 (Local Time) from KFYG Reporting Station
Haze Haze  
Wind Chill: 36°   Ceiling: 3200
Heat Index: 39°   Visibility: 6mi
Dew Point: 36°   Wind: 5mph
Humidity: 87%   Direction: 140°SE
Pressure: 30.25"   Gusts: NA
Location:  38.61°N, 91.22°W
Report Text: KFYG 201715Z AUTO 14004KT 6SM HZ OVC032 04/02 A3025 RMK AO2
Loading
Personal Weather Stations






























Interactive Weather Map New forecast layout! Learn more

10-Day Weather Forecast

Advertisements
Track Severe Weather on mobile